sensor_id;sensor_type;location;lat;lon;timestamp;P1;durP1;ratioP1;P2;durP2;ratioP2
43088;SDS011;28709;52.030;5.652;2022-11-11T00:00:26;9.23;;;4.90;;
43088;SDS011;28709;52.030;5.652;2022-11-11T00:02:53;11.65;;;4.80;;
43088;SDS011;28709;52.030;5.652;2022-11-11T00:05:23;8.38;;;4.53;;
43088;SDS011;28709;52.030;5.652;2022-11-11T00:07:52;11.32;;;5.32;;
43088;SDS011;28709;52.030;5.652;2022-11-11T00:10:23;8.13;;;4.72;;
43088;SDS011;28709;52.030;5.652;2022-11-11T00:12:53;13.07;;;4.75;;
43088;SDS011;28709;52.030;5.652;2022-11-11T00:15:22;11.57;;;5.70;;
43088;SDS011;28709;52.030;5.652;2022-11-11T00:17:47;10.85;;;6.30;;
43088;SDS011;28709;52.030;5.652;2022-11-11T00:20:31;9.35;;;5.55;;
43088;SDS011;28709;52.030;5.652;2022-11-11T00:23:20;9.63;;;4.72;;
43088;SDS011;28709;52.030;5.652;2022-11-11T00:26:07;8.68;;;5.13;;
43088;SDS011;28709;52.030;5.652;2022-11-11T00:28:34;12.20;;;6.10;;
43088;SDS011;28709;52.030;5.652;2022-11-11T00:31:03;11.20;;;5.55;;
43088;SDS011;28709;52.030;5.652;2022-11-11T00:33:33;9.73;;;5.72;;
43088;SDS011;28709;52.030;5.652;2022-11-11T00:35:59;15.45;;;6.32;;
43088;SDS011;28709;52.030;5.652;2022-11-11T00:38:25;12.77;;;7.25;;
43088;SDS011;28709;52.030;5.652;2022-11-11T00:41:09;17.88;;;8.48;;
43088;SDS011;28709;52.030;5.652;2022-11-11T00:43:36;19.35;;;7.90;;
43088;SDS011;28709;52.030;5.652;2022-11-11T00:46:02;15.57;;;7.90;;
43088;SDS011;28709;52.030;5.652;2022-11-11T00:48:47;17.90;;;7.90;;
43088;SDS011;28709;52.030;5.652;2022-11-11T00:51:31;16.75;;;8.82;;
43088;SDS011;28709;52.030;5.652;2022-11-11T00:53:57;14.25;;;8.70;;
43088;SDS011;28709;52.030;5.652;2022-11-11T00:56:23;13.60;;;9.02;;
43088;SDS011;28709;52.030;5.652;2022-11-11T00:58:48;15.80;;;8.20;;
43088;SDS011;28709;52.030;5.652;2022-11-11T01:01:14;14.90;;;8.38;;
43088;SDS011;28709;52.030;5.652;2022-11-11T01:03:40;12.93;;;7.93;;
43088;SDS011;28709;52.030;5.652;2022-11-11T01:06:06;15.02;;;8.55;;
43088;SDS011;28709;52.030;5.652;2022-11-11T01:08:33;19.45;;;9.02;;
43088;SDS011;28709;52.030;5.652;2022-11-11T01:10:59;14.45;;;8.48;;
43088;SDS011;28709;52.030;5.652;2022-11-11T01:13:26;12.25;;;8.10;;
43088;SDS011;28709;52.030;5.652;2022-11-11T01:16:00;13.90;;;9.38;;
43088;SDS011;28709;52.030;5.652;2022-11-11T01:18:28;15.80;;;9.48;;
43088;SDS011;28709;52.030;5.652;2022-11-11T01:20:57;16.38;;;10.43;;
43088;SDS011;28709;52.030;5.652;2022-11-11T01:23:28;12.80;;;8.27;;
43088;SDS011;28709;52.030;5.652;2022-11-11T01:26:00;18.27;;;8.85;;
43088;SDS011;28709;52.030;5.652;2022-11-11T01:28:30;15.88;;;9.32;;
43088;SDS011;28709;52.030;5.652;2022-11-11T01:31:07;21.15;;;10.27;;
43088;SDS011;28709;52.030;5.652;2022-11-11T01:33:34;16.33;;;9.27;;
43088;SDS011;28709;52.030;5.652;2022-11-11T01:36:04;15.73;;;9.98;;
43088;SDS011;28709;52.030;5.652;2022-11-11T01:38:32;16.50;;;9.30;;
43088;SDS011;28709;52.030;5.652;2022-11-11T01:40:58;18.02;;;10.55;;
43088;SDS011;28709;52.030;5.652;2022-11-11T01:43:24;19.25;;;10.77;;
43088;SDS011;28709;52.030;5.652;2022-11-11T01:45:59;18.77;;;9.15;;
43088;SDS011;28709;52.030;5.652;2022-11-11T01:48:32;16.85;;;9.48;;
43088;SDS011;28709;52.030;5.652;2022-11-11T01:54:09;24.08;;;10.85;;
43088;SDS011;28709;52.030;5.652;2022-11-11T01:56:40;15.40;;;9.63;;
43088;SDS011;28709;52.030;5.652;2022-11-11T01:59:08;16.60;;;10.57;;
43088;SDS011;28709;52.030;5.652;2022-11-11T02:01:37;18.33;;;10.27;;
43088;SDS011;28709;52.030;5.652;2022-11-11T02:04:03;19.38;;;10.32;;
43088;SDS011;28709;52.030;5.652;2022-11-11T02:06:49;18.58;;;10.65;;
43088;SDS011;28709;52.030;5.652;2022-11-11T02:09:18;21.15;;;11.35;;
43088;SDS011;28709;52.030;5.652;2022-11-11T02:11:46;18.40;;;10.57;;
43088;SDS011;28709;52.030;5.652;2022-11-11T02:14:32;17.60;;;10.95;;
43088;SDS011;28709;52.030;5.652;2022-11-11T02:17:08;20.20;;;11.07;;
43088;SDS011;28709;52.030;5.652;2022-11-11T02:22:08;21.15;;;10.90;;
43088;SDS011;28709;52.030;5.652;2022-11-11T02:24:38;16.95;;;10.77;;
43088;SDS011;28709;52.030;5.652;2022-11-11T02:27:05;14.27;;;10.18;;
43088;SDS011;28709;52.030;5.652;2022-11-11T02:29:36;16.02;;;9.73;;
43088;SDS011;28709;52.030;5.652;2022-11-11T02:32:03;22.00;;;11.57;;
43088;SDS011;28709;52.030;5.652;2022-11-11T02:34:29;18.23;;;9.82;;
43088;SDS011;28709;52.030;5.652;2022-11-11T02:36:56;21.00;;;11.48;;
43088;SDS011;28709;52.030;5.652;2022-11-11T02:39:23;16.45;;;10.60;;
43088;SDS011;28709;52.030;5.652;2022-11-11T02:41:50;15.18;;;10.40;;
43088;SDS011;28709;52.030;5.652;2022-11-11T02:44:21;22.75;;;11.43;;
43088;SDS011;28709;52.030;5.652;2022-11-11T02:46:47;20.30;;;11.40;;
43088;SDS011;28709;52.030;5.652;2022-11-11T02:49:13;22.35;;;10.85;;
43088;SDS011;28709;52.030;5.652;2022-11-11T02:51:38;23.23;;;13.10;;
43088;SDS011;28709;52.030;5.652;2022-11-11T02:54:04;21.95;;;12.85;;
43088;SDS011;28709;52.030;5.652;2022-11-11T02:56:30;17.45;;;10.98;;
43088;SDS011;28709;52.030;5.652;2022-11-11T02:59:14;25.85;;;12.73;;
43088;SDS011;28709;52.030;5.652;2022-11-11T03:01:40;18.52;;;11.70;;
43088;SDS011;28709;52.030;5.652;2022-11-11T03:04:05;17.38;;;11.30;;
43088;SDS011;28709;52.030;5.652;2022-11-11T03:06:31;22.45;;;11.80;;
43088;SDS011;28709;52.030;5.652;2022-11-11T03:08:57;17.52;;;11.32;;
43088;SDS011;28709;52.030;5.652;2022-11-11T03:11:22;20.10;;;11.95;;
43088;SDS011;28709;52.030;5.652;2022-11-11T03:13:54;19.45;;;11.65;;
43088;SDS011;28709;52.030;5.652;2022-11-11T03:16:22;17.77;;;10.43;;
43088;SDS011;28709;52.030;5.652;2022-11-11T03:19:10;17.35;;;12.23;;
43088;SDS011;28709;52.030;5.652;2022-11-11T03:21:36;16.30;;;10.85;;
43088;SDS011;28709;52.030;5.652;2022-11-11T03:24:02;17.95;;;11.30;;
43088;SDS011;28709;52.030;5.652;2022-11-11T03:26:28;18.30;;;12.13;;
43088;SDS011;28709;52.030;5.652;2022-11-11T03:28:53;20.17;;;12.13;;
43088;SDS011;28709;52.030;5.652;2022-11-11T03:31:19;17.55;;;10.93;;
43088;SDS011;28709;52.030;5.652;2022-11-11T03:33:45;20.98;;;11.63;;
43088;SDS011;28709;52.030;5.652;2022-11-11T03:36:10;27.13;;;12.95;;
43088;SDS011;28709;52.030;5.652;2022-11-11T03:38:36;25.80;;;12.02;;
43088;SDS011;28709;52.030;5.652;2022-11-11T03:41:02;16.05;;;10.00;;
43088;SDS011;28709;52.030;5.652;2022-11-11T03:43:28;24.00;;;11.70;;
43088;SDS011;28709;52.030;5.652;2022-11-11T03:45:56;16.65;;;10.55;;
43088;SDS011;28709;52.030;5.652;2022-11-11T03:48:25;19.83;;;9.65;;
43088;SDS011;28709;52.030;5.652;2022-11-11T03:50:52;17.17;;;10.80;;
43088;SDS011;28709;52.030;5.652;2022-11-11T03:53:19;16.40;;;9.85;;
43088;SDS011;28709;52.030;5.652;2022-11-11T03:55:45;20.52;;;11.20;;
43088;SDS011;28709;52.030;5.652;2022-11-11T03:58:11;19.08;;;9.93;;
43088;SDS011;28709;52.030;5.652;2022-11-11T04:00:37;15.45;;;9.88;;
43088;SDS011;28709;52.030;5.652;2022-11-11T04:05:47;14.00;;;8.85;;
43088;SDS011;28709;52.030;5.652;2022-11-11T04:08:31;16.00;;;10.05;;
43088;SDS011;28709;52.030;5.652;2022-11-11T04:11:18;12.20;;;8.15;;
43088;SDS011;28709;52.030;5.652;2022-11-11T04:13:53;19.70;;;8.75;;
43088;SDS011;28709;52.030;5.652;2022-11-11T04:16:41;12.35;;;7.88;;
43088;SDS011;28709;52.030;5.652;2022-11-11T04:19:07;18.98;;;9.02;;
43088;SDS011;28709;52.030;5.652;2022-11-11T04:21:51;19.83;;;9.13;;
43088;SDS011;28709;52.030;5.652;2022-11-11T04:24:18;17.42;;;8.85;;
43088;SDS011;28709;52.030;5.652;2022-11-11T04:27:07;16.52;;;8.32;;
43088;SDS011;28709;52.030;5.652;2022-11-11T04:29:38;18.45;;;9.27;;
43088;SDS011;28709;52.030;5.652;2022-11-11T04:32:07;18.20;;;8.73;;
43088;SDS011;28709;52.030;5.652;2022-11-11T04:34:56;14.90;;;8.52;;
43088;SDS011;28709;52.030;5.652;2022-11-11T04:37:24;15.52;;;8.40;;
43088;SDS011;28709;52.030;5.652;2022-11-11T04:39:50;17.67;;;8.13;;
43088;SDS011;28709;52.030;5.652;2022-11-11T04:42:35;13.73;;;8.10;;
43088;SDS011;28709;52.030;5.652;2022-11-11T04:45:01;15.75;;;7.70;;
43088;SDS011;28709;52.030;5.652;2022-11-11T04:50:33;17.23;;;8.88;;
43088;SDS011;28709;52.030;5.652;2022-11-11T04:53:00;19.70;;;9.35;;
43088;SDS011;28709;52.030;5.652;2022-11-11T04:55:27;12.98;;;8.73;;
43088;SDS011;28709;52.030;5.652;2022-11-11T04:58:12;15.65;;;8.35;;
43088;SDS011;28709;52.030;5.652;2022-11-11T05:00:38;21.40;;;9.00;;
43088;SDS011;28709;52.030;5.652;2022-11-11T05:03:04;14.90;;;8.88;;
43088;SDS011;28709;52.030;5.652;2022-11-11T05:05:52;17.77;;;9.82;;
43088;SDS011;28709;52.030;5.652;2022-11-11T05:08:38;17.95;;;9.63;;
43088;SDS011;28709;52.030;5.652;2022-11-11T05:11:24;16.70;;;8.77;;
43088;SDS011;28709;52.030;5.652;2022-11-11T05:13:55;16.67;;;8.57;;
43088;SDS011;28709;52.030;5.652;2022-11-11T05:16:41;17.75;;;9.15;;
43088;SDS011;28709;52.030;5.652;2022-11-11T05:19:27;19.77;;;9.13;;
43088;SDS011;28709;52.030;5.652;2022-11-11T05:22:17;14.73;;;8.60;;
43088;SDS011;28709;52.030;5.652;2022-11-11T05:24:47;19.67;;;8.63;;
43088;SDS011;28709;52.030;5.652;2022-11-11T05:27:31;13.35;;;8.18;;
43088;SDS011;28709;52.030;5.652;2022-11-11T05:29:57;17.90;;;8.85;;
43088;SDS011;28709;52.030;5.652;2022-11-11T05:32:23;16.77;;;9.63;;
43088;SDS011;28709;52.030;5.652;2022-11-11T05:34:49;12.98;;;8.88;;
43088;SDS011;28709;52.030;5.652;2022-11-11T05:37:15;18.92;;;9.52;;
43088;SDS011;28709;52.030;5.652;2022-11-11T05:39:41;20.30;;;10.10;;
43088;SDS011;28709;52.030;5.652;2022-11-11T05:42:07;18.75;;;9.75;;
43088;SDS011;28709;52.030;5.652;2022-11-11T05:44:32;18.95;;;9.63;;
43088;SDS011;28709;52.030;5.652;2022-11-11T05:46:58;19.25;;;8.77;;
43088;SDS011;28709;52.030;5.652;2022-11-11T05:49:24;21.88;;;9.02;;
43088;SDS011;28709;52.030;5.652;2022-11-11T05:51:50;20.48;;;9.60;;
43088;SDS011;28709;52.030;5.652;2022-11-11T05:54:16;14.70;;;9.68;;
43088;SDS011;28709;52.030;5.652;2022-11-11T05:56:42;24.20;;;10.25;;
43088;SDS011;28709;52.030;5.652;2022-11-11T05:59:08;19.38;;;9.85;;
43088;SDS011;28709;52.030;5.652;2022-11-11T06:01:35;16.02;;;8.95;;
43088;SDS011;28709;52.030;5.652;2022-11-11T06:04:01;21.20;;;9.35;;
43088;SDS011;28709;52.030;5.652;2022-11-11T06:06:28;15.75;;;8.70;;
43088;SDS011;28709;52.030;5.652;2022-11-11T06:08:53;16.83;;;9.52;;
43088;SDS011;28709;52.030;5.652;2022-11-11T06:11:19;17.98;;;8.43;;
43088;SDS011;28709;52.030;5.652;2022-11-11T06:13:45;17.00;;;8.52;;
43088;SDS011;28709;52.030;5.652;2022-11-11T06:16:11;19.63;;;8.27;;
43088;SDS011;28709;52.030;5.652;2022-11-11T06:18:36;20.90;;;8.52;;
43088;SDS011;28709;52.030;5.652;2022-11-11T06:21:02;16.67;;;8.52;;
43088;SDS011;28709;52.030;5.652;2022-11-11T06:23:28;13.77;;;8.73;;
43088;SDS011;28709;52.030;5.652;2022-11-11T06:25:54;16.10;;;9.30;;
43088;SDS011;28709;52.030;5.652;2022-11-11T06:28:44;22.17;;;9.20;;
43088;SDS011;28709;52.030;5.652;2022-11-11T06:31:15;16.48;;;8.95;;
43088;SDS011;28709;52.030;5.652;2022-11-11T06:33:45;19.98;;;8.80;;
43088;SDS011;28709;52.030;5.652;2022-11-11T06:36:11;13.98;;;8.20;;
43088;SDS011;28709;52.030;5.652;2022-11-11T06:38:39;17.05;;;10.13;;
43088;SDS011;28709;52.030;5.652;2022-11-11T06:41:05;20.42;;;10.77;;
43088;SDS011;28709;52.030;5.652;2022-11-11T06:43:31;22.02;;;12.38;;
43088;SDS011;28709;52.030;5.652;2022-11-11T06:45:57;18.75;;;9.48;;
43088;SDS011;28709;52.030;5.652;2022-11-11T06:48:26;15.75;;;8.30;;
43088;SDS011;28709;52.030;5.652;2022-11-11T06:50:53;13.50;;;7.50;;
43088;SDS011;28709;52.030;5.652;2022-11-11T06:53:20;15.77;;;8.68;;
43088;SDS011;28709;52.030;5.652;2022-11-11T06:55:46;15.32;;;8.55;;
43088;SDS011;28709;52.030;5.652;2022-11-11T06:58:13;17.83;;;8.13;;
43088;SDS011;28709;52.030;5.652;2022-11-11T07:00:41;16.98;;;8.25;;
43088;SDS011;28709;52.030;5.652;2022-11-11T07:03:09;17.27;;;9.10;;
43088;SDS011;28709;52.030;5.652;2022-11-11T07:05:37;15.05;;;9.23;;
43088;SDS011;28709;52.030;5.652;2022-11-11T07:08:03;17.25;;;9.75;;
43088;SDS011;28709;52.030;5.652;2022-11-11T07:10:31;16.02;;;8.43;;
43088;SDS011;28709;52.030;5.652;2022-11-11T07:12:58;16.58;;;8.90;;
43088;SDS011;28709;52.030;5.652;2022-11-11T07:15:24;14.65;;;8.35;;
43088;SDS011;28709;52.030;5.652;2022-11-11T07:17:50;16.02;;;8.68;;
43088;SDS011;28709;52.030;5.652;2022-11-11T07:20:16;15.90;;;8.35;;
43088;SDS011;28709;52.030;5.652;2022-11-11T07:22:41;18.85;;;9.52;;
43088;SDS011;28709;52.030;5.652;2022-11-11T07:25:07;13.77;;;8.30;;
43088;SDS011;28709;52.030;5.652;2022-11-11T07:27:40;19.98;;;8.13;;
43088;SDS011;28709;52.030;5.652;2022-11-11T07:30:07;14.27;;;8.38;;
43088;SDS011;28709;52.030;5.652;2022-11-11T07:32:33;16.77;;;7.70;;
43088;SDS011;28709;52.030;5.652;2022-11-11T07:34:59;18.15;;;9.07;;
43088;SDS011;28709;52.030;5.652;2022-11-11T07:37:25;15.55;;;7.70;;
43088;SDS011;28709;52.030;5.652;2022-11-11T07:39:50;18.70;;;8.50;;
43088;SDS011;28709;52.030;5.652;2022-11-11T07:42:16;19.88;;;9.02;;
43088;SDS011;28709;52.030;5.652;2022-11-11T07:44:42;16.27;;;9.52;;
43088;SDS011;28709;52.030;5.652;2022-11-11T07:47:07;14.15;;;8.73;;
43088;SDS011;28709;52.030;5.652;2022-11-11T07:49:33;16.23;;;9.13;;
43088;SDS011;28709;52.030;5.652;2022-11-11T07:51:59;19.17;;;9.70;;
43088;SDS011;28709;52.030;5.652;2022-11-11T07:54:24;14.68;;;8.98;;
43088;SDS011;28709;52.030;5.652;2022-11-11T07:56:50;15.05;;;9.85;;
43088;SDS011;28709;52.030;5.652;2022-11-11T07:59:16;17.60;;;9.32;;
43088;SDS011;28709;52.030;5.652;2022-11-11T08:01:41;15.88;;;9.20;;
43088;SDS011;28709;52.030;5.652;2022-11-11T08:04:07;18.60;;;9.93;;
43088;SDS011;28709;52.030;5.652;2022-11-11T08:06:33;18.70;;;9.10;;
43088;SDS011;28709;52.030;5.652;2022-11-11T08:08:58;15.93;;;9.70;;
43088;SDS011;28709;52.030;5.652;2022-11-11T08:11:24;14.48;;;9.15;;
43088;SDS011;28709;52.030;5.652;2022-11-11T08:14:08;18.38;;;9.77;;
43088;SDS011;28709;52.030;5.652;2022-11-11T08:16:34;15.05;;;9.13;;
43088;SDS011;28709;52.030;5.652;2022-11-11T08:19:00;15.00;;;9.68;;
43088;SDS011;28709;52.030;5.652;2022-11-11T08:21:25;13.95;;;8.95;;
43088;SDS011;28709;52.030;5.652;2022-11-11T08:23:51;19.33;;;10.68;;
43088;SDS011;28709;52.030;5.652;2022-11-11T08:26:18;24.50;;;10.73;;
43088;SDS011;28709;52.030;5.652;2022-11-11T08:28:45;15.52;;;8.48;;
43088;SDS011;28709;52.030;5.652;2022-11-11T08:31:11;16.15;;;9.10;;
43088;SDS011;28709;52.030;5.652;2022-11-11T08:33:37;17.77;;;10.43;;
43088;SDS011;28709;52.030;5.652;2022-11-11T08:36:02;17.60;;;9.65;;
43088;SDS011;28709;52.030;5.652;2022-11-11T08:38:29;14.05;;;9.57;;
43088;SDS011;28709;52.030;5.652;2022-11-11T08:40:58;14.77;;;9.70;;
43088;SDS011;28709;52.030;5.652;2022-11-11T08:43:28;17.10;;;9.88;;
43088;SDS011;28709;52.030;5.652;2022-11-11T08:45:58;16.67;;;10.15;;
43088;SDS011;28709;52.030;5.652;2022-11-11T08:48:25;20.40;;;9.93;;
43088;SDS011;28709;52.030;5.652;2022-11-11T08:50:51;16.55;;;9.40;;
43088;SDS011;28709;52.030;5.652;2022-11-11T08:53:17;18.08;;;9.95;;
43088;SDS011;28709;52.030;5.652;2022-11-11T08:55:43;20.92;;;9.65;;
43088;SDS011;28709;52.030;5.652;2022-11-11T08:58:09;15.10;;;9.13;;
43088;SDS011;28709;52.030;5.652;2022-11-11T09:00:35;16.02;;;9.15;;
43088;SDS011;28709;52.030;5.652;2022-11-11T09:03:02;13.70;;;8.70;;
43088;SDS011;28709;52.030;5.652;2022-11-11T09:05:29;17.95;;;9.00;;
43088;SDS011;28709;52.030;5.652;2022-11-11T09:07:55;16.50;;;8.50;;
43088;SDS011;28709;52.030;5.652;2022-11-11T09:10:24;12.02;;;7.88;;
43088;SDS011;28709;52.030;5.652;2022-11-11T09:12:54;13.02;;;8.82;;
43088;SDS011;28709;52.030;5.652;2022-11-11T09:15:21;19.83;;;9.63;;
43088;SDS011;28709;52.030;5.652;2022-11-11T09:17:46;12.85;;;8.30;;
43088;SDS011;28709;52.030;5.652;2022-11-11T09:20:12;13.13;;;8.38;;
43088;SDS011;28709;52.030;5.652;2022-11-11T09:22:42;16.17;;;8.65;;
43088;SDS011;28709;52.030;5.652;2022-11-11T09:25:08;13.07;;;7.70;;
43088;SDS011;28709;52.030;5.652;2022-11-11T09:27:34;13.15;;;7.95;;
43088;SDS011;28709;52.030;5.652;2022-11-11T09:30:00;13.88;;;7.25;;
43088;SDS011;28709;52.030;5.652;2022-11-11T09:32:25;11.80;;;7.13;;
43088;SDS011;28709;52.030;5.652;2022-11-11T09:34:51;13.63;;;7.82;;
43088;SDS011;28709;52.030;5.652;2022-11-11T09:37:19;11.95;;;6.32;;
43088;SDS011;28709;52.030;5.652;2022-11-11T09:39:45;16.67;;;6.72;;
43088;SDS011;28709;52.030;5.652;2022-11-11T09:47:38;14.40;;;6.40;;
43088;SDS011;28709;52.030;5.652;2022-11-11T09:50:26;11.90;;;6.35;;
43088;SDS011;28709;52.030;5.652;2022-11-11T09:55:43;9.55;;;6.25;;
43088;SDS011;28709;52.030;5.652;2022-11-11T09:58:17;11.80;;;6.53;;
43088;SDS011;28709;52.030;5.652;2022-11-11T10:00:47;10.55;;;6.65;;
43088;SDS011;28709;52.030;5.652;2022-11-11T10:03:19;9.65;;;5.95;;
43088;SDS011;28709;52.030;5.652;2022-11-11T10:06:06;8.20;;;5.68;;
43088;SDS011;28709;52.030;5.652;2022-11-11T10:08:41;12.32;;;5.90;;
43088;SDS011;28709;52.030;5.652;2022-11-11T10:14:01;8.93;;;5.20;;
43088;SDS011;28709;52.030;5.652;2022-11-11T10:21:44;10.75;;;6.03;;
43088;SDS011;28709;52.030;5.652;2022-11-11T10:24:24;11.18;;;5.97;;
43088;SDS011;28709;52.030;5.652;2022-11-11T10:26:53;10.45;;;6.20;;
43088;SDS011;28709;52.030;5.652;2022-11-11T10:29:20;10.23;;;5.38;;
43088;SDS011;28709;52.030;5.652;2022-11-11T10:32:23;8.48;;;5.35;;
43088;SDS011;28709;52.030;5.652;2022-11-11T10:34:45;9.50;;;5.65;;
43088;SDS011;28709;52.030;5.652;2022-11-11T10:37:58;10.77;;;5.50;;
43088;SDS011;28709;52.030;5.652;2022-11-11T10:42:53;9.10;;;5.70;;
43088;SDS011;28709;52.030;5.652;2022-11-11T10:45:23;9.38;;;5.90;;
43088;SDS011;28709;52.030;5.652;2022-11-11T10:50:35;14.35;;;5.80;;
43088;SDS011;28709;52.030;5.652;2022-11-11T10:53:07;8.85;;;5.03;;
43088;SDS011;28709;52.030;5.652;2022-11-11T10:55:58;14.20;;;6.15;;
43088;SDS011;28709;52.030;5.652;2022-11-11T11:01:30;13.23;;;6.50;;
43088;SDS011;28709;52.030;5.652;2022-11-11T11:04:08;11.38;;;5.38;;
43088;SDS011;28709;52.030;5.652;2022-11-11T11:06:41;10.25;;;5.53;;
43088;SDS011;28709;52.030;5.652;2022-11-11T11:09:29;10.18;;;5.97;;
43088;SDS011;28709;52.030;5.652;2022-11-11T11:14:41;10.00;;;5.75;;
43088;SDS011;28709;52.030;5.652;2022-11-11T11:17:12;8.77;;;5.40;;
43088;SDS011;28709;52.030;5.652;2022-11-11T11:19:41;12.70;;;5.80;;
43088;SDS011;28709;52.030;5.652;2022-11-11T11:22:07;9.95;;;5.72;;
43088;SDS011;28709;52.030;5.652;2022-11-11T11:24:33;10.98;;;5.90;;
43088;SDS011;28709;52.030;5.652;2022-11-11T11:27:07;10.02;;;5.82;;
43088;SDS011;28709;52.030;5.652;2022-11-11T11:29:34;9.80;;;5.65;;
43088;SDS011;28709;52.030;5.652;2022-11-11T11:34:46;10.07;;;6.03;;
43088;SDS011;28709;52.030;5.652;2022-11-11T11:39:43;12.02;;;5.55;;
43088;SDS011;28709;52.030;5.652;2022-11-11T11:42:25;17.48;;;6.90;;
43088;SDS011;28709;52.030;5.652;2022-11-11T11:45:22;9.68;;;6.03;;
43088;SDS011;28709;52.030;5.652;2022-11-11T11:50:56;8.85;;;5.60;;
43088;SDS011;28709;52.030;5.652;2022-11-11T11:53:47;14.75;;;6.75;;
43088;SDS011;28709;52.030;5.652;2022-11-11T11:56:40;11.93;;;6.85;;
43088;SDS011;28709;52.030;5.652;2022-11-11T11:59:26;11.65;;;6.07;;
43088;SDS011;28709;52.030;5.652;2022-11-11T12:04:52;13.80;;;7.40;;
43088;SDS011;28709;52.030;5.652;2022-11-11T12:07:50;11.30;;;5.90;;
43088;SDS011;28709;52.030;5.652;2022-11-11T12:21:13;12.43;;;6.53;;
43088;SDS011;28709;52.030;5.652;2022-11-11T12:26:23;8.80;;;5.53;;
43088;SDS011;28709;52.030;5.652;2022-11-11T12:29:07;13.82;;;6.55;;
43088;SDS011;28709;52.030;5.652;2022-11-11T12:31:40;12.93;;;6.43;;
43088;SDS011;28709;52.030;5.652;2022-11-11T12:34:23;16.25;;;6.68;;
43088;SDS011;28709;52.030;5.652;2022-11-11T12:37:02;10.20;;;5.93;;
43088;SDS011;28709;52.030;5.652;2022-11-11T12:50:34;10.52;;;5.43;;
43088;SDS011;28709;52.030;5.652;2022-11-11T12:53:22;10.68;;;5.50;;
43088;SDS011;28709;52.030;5.652;2022-11-11T12:56:07;10.75;;;5.68;;
43088;SDS011;28709;52.030;5.652;2022-11-11T12:58:43;7.43;;;4.55;;
43088;SDS011;28709;52.030;5.652;2022-11-11T13:01:20;9.00;;;4.85;;
43088;SDS011;28709;52.030;5.652;2022-11-11T13:09:21;8.32;;;5.32;;
43088;SDS011;28709;52.030;5.652;2022-11-11T13:12:04;8.68;;;5.30;;
43088;SDS011;28709;52.030;5.652;2022-11-11T13:14:45;10.23;;;5.22;;
43088;SDS011;28709;52.030;5.652;2022-11-11T13:17:24;10.27;;;5.43;;
43088;SDS011;28709;52.030;5.652;2022-11-11T13:19:50;9.00;;;5.05;;
43088;SDS011;28709;52.030;5.652;2022-11-11T13:22:27;8.60;;;5.10;;
43088;SDS011;28709;52.030;5.652;2022-11-11T13:24:54;10.00;;;5.07;;
43088;SDS011;28709;52.030;5.652;2022-11-11T13:27:35;10.38;;;4.55;;
43088;SDS011;28709;52.030;5.652;2022-11-11T13:35:52;8.43;;;5.10;;
43088;SDS011;28709;52.030;5.652;2022-11-11T13:41:06;7.80;;;4.50;;
43088;SDS011;28709;52.030;5.652;2022-11-11T13:43:34;11.65;;;5.22;;
43088;SDS011;28709;52.030;5.652;2022-11-11T13:46:29;9.32;;;5.53;;
43088;SDS011;28709;52.030;5.652;2022-11-11T13:49:07;10.20;;;4.53;;
43088;SDS011;28709;52.030;5.652;2022-11-11T13:51:57;10.60;;;5.55;;
43088;SDS011;28709;52.030;5.652;2022-11-11T13:57:05;6.20;;;3.97;;
43088;SDS011;28709;52.030;5.652;2022-11-11T13:59:41;6.93;;;4.13;;
43088;SDS011;28709;52.030;5.652;2022-11-11T14:02:24;9.23;;;4.30;;
43088;SDS011;28709;52.030;5.652;2022-11-11T14:12:41;10.23;;;5.32;;
43088;SDS011;28709;52.030;5.652;2022-11-11T14:18:10;6.85;;;3.67;;
43088;SDS011;28709;52.030;5.652;2022-11-11T14:21:01;8.40;;;4.43;;
43088;SDS011;28709;52.030;5.652;2022-11-11T14:28:33;6.25;;;3.30;;
43088;SDS011;28709;52.030;5.652;2022-11-11T14:36:11;9.35;;;4.13;;
43088;SDS011;28709;52.030;5.652;2022-11-11T14:54:47;4.90;;;3.10;;
43088;SDS011;28709;52.030;5.652;2022-11-11T14:57:32;8.07;;;2.90;;
43088;SDS011;28709;52.030;5.652;2022-11-11T15:00:03;7.95;;;2.90;;
43088;SDS011;28709;52.030;5.652;2022-11-11T15:02:37;3.92;;;2.50;;
43088;SDS011;28709;52.030;5.652;2022-11-11T15:05:19;5.20;;;2.97;;
43088;SDS011;28709;52.030;5.652;2022-11-11T15:10:32;4.28;;;2.75;;
43088;SDS011;28709;52.030;5.652;2022-11-11T15:13:18;4.55;;;2.53;;
43088;SDS011;28709;52.030;5.652;2022-11-11T15:16:05;4.78;;;2.70;;
43088;SDS011;28709;52.030;5.652;2022-11-11T15:18:42;4.88;;;2.65;;
43088;SDS011;28709;52.030;5.652;2022-11-11T15:32:56;5.50;;;2.63;;
43088;SDS011;28709;52.030;5.652;2022-11-11T15:35:49;3.88;;;2.10;;
43088;SDS011;28709;52.030;5.652;2022-11-11T15:38:16;6.90;;;2.28;;
43088;SDS011;28709;52.030;5.652;2022-11-11T15:40:50;5.53;;;2.50;;
43088;SDS011;28709;52.030;5.652;2022-11-11T15:43:31;6.95;;;2.70;;
43088;SDS011;28709;52.030;5.652;2022-11-11T15:46:00;8.27;;;3.05;;
43088;SDS011;28709;52.030;5.652;2022-11-11T15:48:43;6.25;;;2.78;;
43088;SDS011;28709;52.030;5.652;2022-11-11T15:51:29;4.95;;;2.53;;
43088;SDS011;28709;52.030;5.652;2022-11-11T15:56:43;5.97;;;2.22;;
43088;SDS011;28709;52.030;5.652;2022-11-11T15:59:16;8.25;;;2.63;;
43088;SDS011;28709;52.030;5.652;2022-11-11T16:01:49;5.93;;;2.58;;
43088;SDS011;28709;52.030;5.652;2022-11-11T16:04:17;2.97;;;2.10;;
43088;SDS011;28709;52.030;5.652;2022-11-11T16:06:45;4.32;;;2.00;;
43088;SDS011;28709;52.030;5.652;2022-11-11T16:09:12;6.43;;;3.33;;
43088;SDS011;28709;52.030;5.652;2022-11-11T16:11:40;4.88;;;2.45;;
43088;SDS011;28709;52.030;5.652;2022-11-11T16:14:07;6.72;;;2.40;;
43088;SDS011;28709;52.030;5.652;2022-11-11T16:16:43;5.18;;;2.45;;
43088;SDS011;28709;52.030;5.652;2022-11-11T16:19:28;7.10;;;2.35;;
43088;SDS011;28709;52.030;5.652;2022-11-11T16:22:00;6.47;;;3.00;;
43088;SDS011;28709;52.030;5.652;2022-11-11T16:24:47;5.00;;;2.42;;
43088;SDS011;28709;52.030;5.652;2022-11-11T16:27:17;4.35;;;2.92;;
43088;SDS011;28709;52.030;5.652;2022-11-11T16:29:46;9.65;;;2.90;;
43088;SDS011;28709;52.030;5.652;2022-11-11T16:34:49;5.78;;;2.40;;
43088;SDS011;28709;52.030;5.652;2022-11-11T16:37:17;4.68;;;2.75;;
43088;SDS011;28709;52.030;5.652;2022-11-11T16:39:50;4.38;;;2.75;;
43088;SDS011;28709;52.030;5.652;2022-11-11T16:42:20;5.63;;;2.40;;
43088;SDS011;28709;52.030;5.652;2022-11-11T16:55:04;4.50;;;2.45;;
43088;SDS011;28709;52.030;5.652;2022-11-11T16:57:31;5.82;;;2.95;;
43088;SDS011;28709;52.030;5.652;2022-11-11T16:59:59;4.72;;;2.78;;
43088;SDS011;28709;52.030;5.652;2022-11-11T17:02:28;6.72;;;2.53;;
43088;SDS011;28709;52.030;5.652;2022-11-11T17:04:54;5.47;;;2.55;;
43088;SDS011;28709;52.030;5.652;2022-11-11T17:07:29;5.47;;;2.63;;
43088;SDS011;28709;52.030;5.652;2022-11-11T17:10:19;6.22;;;3.35;;
43088;SDS011;28709;52.030;5.652;2022-11-11T17:12:47;6.53;;;3.17;;
43088;SDS011;28709;52.030;5.652;2022-11-11T17:15:15;5.72;;;3.03;;
43088;SDS011;28709;52.030;5.652;2022-11-11T17:17:43;4.72;;;2.90;;
43088;SDS011;28709;52.030;5.652;2022-11-11T17:22:56;5.18;;;2.53;;
43088;SDS011;28709;52.030;5.652;2022-11-11T17:25:22;5.88;;;2.50;;
43088;SDS011;28709;52.030;5.652;2022-11-11T17:27:48;5.43;;;2.33;;
43088;SDS011;28709;52.030;5.652;2022-11-11T17:30:13;5.10;;;2.63;;
43088;SDS011;28709;52.030;5.652;2022-11-11T17:32:39;5.25;;;2.60;;
43088;SDS011;28709;52.030;5.652;2022-11-11T17:35:06;9.13;;;2.80;;
43088;SDS011;28709;52.030;5.652;2022-11-11T17:37:33;7.90;;;3.33;;
43088;SDS011;28709;52.030;5.652;2022-11-11T17:39:59;4.97;;;2.92;;